sensor_id;sensor_type;location;lat;lon;timestamp;pressure;altitude;pressure_sealevel;temperature;humidity
48892;BME280;50130;52.150;5.236;2023-02-20T00:01:10;102321.0;;;7.94;95.25
48892;BME280;50130;52.150;5.236;2023-02-20T00:02:47;102307.0;;;7.94;95.33
48892;BME280;50130;52.150;5.236;2023-02-20T00:04:25;102303.0;;;7.89;95.36
48892;BME280;50130;52.150;5.236;2023-02-20T00:07:38;102302.0;;;7.94;95.24
48892;BME280;50130;52.150;5.236;2023-02-20T00:09:15;102286.0;;;7.94;95.19
48892;BME280;50130;52.150;5.236;2023-02-20T00:10:53;102289.0;;;7.94;94.96
48892;BME280;50130;52.150;5.236;2023-02-20T00:14:06;102314.0;;;8.07;94.79
48892;BME280;50130;52.150;5.236;2023-02-20T00:15:43;102322.0;;;8.03;94.54
48892;BME280;50130;52.150;5.236;2023-02-20T00:17:20;102336.0;;;8.09;94.55
48892;BME280;50130;52.150;5.236;2023-02-20T00:18:56;102317.0;;;8.0;94.9
48892;BME280;50130;52.150;5.236;2023-02-20T00:22:11;102302.0;;;7.99;94.58
48892;BME280;50130;52.150;5.236;2023-02-20T00:23:48;102305.0;;;8.14;94.57
48892;BME280;50130;52.150;5.236;2023-02-20T00:25:25;102293.0;;;8.27;93.94
48892;BME280;50130;52.150;5.236;2023-02-20T00:28:39;102300.0;;;8.14;94.42
48892;BME280;50130;52.150;5.236;2023-02-20T00:30:19;102290.0;;;7.99;95.78
48892;BME280;50130;52.150;5.236;2023-02-20T00:31:57;102284.0;;;8.14;95.0
48892;BME280;50130;52.150;5.236;2023-02-20T00:33:35;102283.0;;;8.13;94.95
48892;BME280;50130;52.150;5.236;2023-02-20T00:36:49;102280.0;;;8.22;94.22
48892;BME280;50130;52.150;5.236;2023-02-20T00:38:26;102283.0;;;8.14;94.49
48892;BME280;50130;52.150;5.236;2023-02-20T00:40:05;102276.0;;;8.14;94.69
48892;BME280;50130;52.150;5.236;2023-02-20T00:43:19;102273.0;;;8.13;94.66
48892;BME280;50130;52.150;5.236;2023-02-20T00:44:56;102269.0;;;8.1;94.48
48892;BME280;50130;52.150;5.236;2023-02-20T00:46:33;102273.0;;;8.09;94.64
48892;BME280;50130;52.150;5.236;2023-02-20T00:49:47;102274.0;;;8.14;94.85
48892;BME280;50130;52.150;5.236;2023-02-20T00:51:24;102267.0;;;8.2;94.29
48892;BME280;50130;52.150;5.236;2023-02-20T00:53:01;102263.0;;;8.26;94.09
48892;BME280;50130;52.150;5.236;2023-02-20T00:54:39;102266.0;;;8.2;94.28
48892;BME280;50130;52.150;5.236;2023-02-20T00:57:51;102259.0;;;8.18;94.17
48892;BME280;50130;52.150;5.236;2023-02-20T00:59:28;102259.0;;;8.15;94.54
48892;BME280;50130;52.150;5.236;2023-02-20T01:01:05;102256.0;;;8.15;94.39
48892;BME280;50130;52.150;5.236;2023-02-20T01:04:19;102256.0;;;8.08;94.71
48892;BME280;50130;52.150;5.236;2023-02-20T01:05:55;102256.0;;;8.17;94.23
48892;BME280;50130;52.150;5.236;2023-02-20T01:07:32;102247.0;;;8.14;94.62
48892;BME280;50130;52.150;5.236;2023-02-20T01:09:09;102227.0;;;8.07;94.65
48892;BME280;50130;52.150;5.236;2023-02-20T01:12:26;102223.0;;;7.98;94.79
48892;BME280;50130;52.150;5.236;2023-02-20T01:14:02;102202.0;;;8.0;94.76
48892;BME280;50130;52.150;5.236;2023-02-20T01:15:39;102191.0;;;7.96;95.05
48892;BME280;50130;52.150;5.236;2023-02-20T01:18:51;102183.0;;;8.08;94.38
48892;BME280;50130;52.150;5.236;2023-02-20T01:20:29;102184.0;;;8.06;94.65
48892;BME280;50130;52.150;5.236;2023-02-20T01:22:07;102173.0;;;7.98;95.02
48892;BME280;50130;52.150;5.236;2023-02-20T01:25:20;102174.0;;;7.95;95.04
48892;BME280;50130;52.150;5.236;2023-02-20T01:26:58;102185.0;;;7.82;95.62
48892;BME280;50130;52.150;5.236;2023-02-20T01:28:34;102174.0;;;8.05;94.96
48892;BME280;50130;52.150;5.236;2023-02-20T01:30:12;102183.0;;;7.97;94.91
48892;BME280;50130;52.150;5.236;2023-02-20T01:33:27;102185.0;;;7.94;95.04
48892;BME280;50130;52.150;5.236;2023-02-20T01:35:05;102198.0;;;7.94;95.35
48892;BME280;50130;52.150;5.236;2023-02-20T01:36:46;102196.0;;;7.89;95.3
48892;BME280;50130;52.150;5.236;2023-02-20T01:40:02;102188.0;;;7.88;95.42
48892;BME280;50130;52.150;5.236;2023-02-20T01:41:39;102196.0;;;7.89;95.67
48892;BME280;50130;52.150;5.236;2023-02-20T01:43:16;102187.0;;;7.94;95.39
48892;BME280;50130;52.150;5.236;2023-02-20T01:44:52;102184.0;;;8.01;95.02
48892;BME280;50130;52.150;5.236;2023-02-20T01:48:26;102193.0;;;7.91;95.47
48892;BME280;50130;52.150;5.236;2023-02-20T01:50:03;102184.0;;;7.89;95.83
48892;BME280;50130;52.150;5.236;2023-02-20T01:51:45;102180.0;;;7.84;96.21
48892;BME280;50130;52.150;5.236;2023-02-20T01:53:27;102184.0;;;7.81;96.81
48892;BME280;50130;52.150;5.236;2023-02-20T01:56:50;102185.0;;;7.78;96.74
48892;BME280;50130;52.150;5.236;2023-02-20T01:58:30;102184.0;;;7.82;97.25
48892;BME280;50130;52.150;5.236;2023-02-20T02:00:14;102180.0;;;7.77;97.61
48892;BME280;50130;52.150;5.236;2023-02-20T02:01:53;102181.0;;;7.86;97.42
48892;BME280;50130;52.150;5.236;2023-02-20T02:03:32;102173.0;;;7.94;97.38
48892;BME280;50130;52.150;5.236;2023-02-20T02:06:50;102171.0;;;7.82;98.07
48892;BME280;50130;52.150;5.236;2023-02-20T02:08:29;102167.0;;;7.94;97.92
48892;BME280;50130;52.150;5.236;2023-02-20T02:10:11;102165.0;;;7.85;98.29
48892;BME280;50130;52.150;5.236;2023-02-20T02:13:26;102158.0;;;7.96;97.85
48892;BME280;50130;52.150;5.236;2023-02-20T02:15:13;102160.0;;;7.91;98.05
48892;BME280;50130;52.150;5.236;2023-02-20T02:16:59;102162.0;;;8.03;97.96
48892;BME280;50130;52.150;5.236;2023-02-20T02:18:51;102163.0;;;7.95;98.35
48892;BME280;50130;52.150;5.236;2023-02-20T02:22:07;102168.0;;;8.0;98.73
48892;BME280;50130;52.150;5.236;2023-02-20T02:27:21;102156.0;;;8.09;98.69
48892;BME280;50130;52.150;5.236;2023-02-20T02:30:53;102152.0;;;8.13;98.55
48892;BME280;50130;52.150;5.236;2023-02-20T02:34:02;102153.0;;;8.14;98.82
48892;BME280;50130;52.150;5.236;2023-02-20T02:35:50;102143.0;;;8.17;98.95
48892;BME280;50130;52.150;5.236;2023-02-20T02:36:50;102143.0;;;8.17;98.95
48892;BME280;50130;52.150;5.236;2023-02-20T02:38:37;102140.0;;;8.23;98.84
48892;BME280;50130;52.150;5.236;2023-02-20T02:40:26;102141.0;;;8.25;99.05
48892;BME280;50130;52.150;5.236;2023-02-20T02:42:13;102136.0;;;8.22;99.42
48892;BME280;50130;52.150;5.236;2023-02-20T02:43:55;102130.0;;;8.24;99.08
48892;BME280;50130;52.150;5.236;2023-02-20T02:45:40;102137.0;;;8.33;99.06
48892;BME280;50130;52.150;5.236;2023-02-20T02:49:06;102130.0;;;8.36;98.83
48892;BME280;50130;52.150;5.236;2023-02-20T02:50:48;102125.0;;;8.32;98.93
48892;BME280;50130;52.150;5.236;2023-02-20T02:53:01;102131.0;;;8.38;99.22
48892;BME280;50130;52.150;5.236;2023-02-20T02:54:38;102130.0;;;8.4;99.44
48892;BME280;50130;52.150;5.236;2023-02-20T02:56:32;102131.0;;;8.48;99.2
48892;BME280;50130;52.150;5.236;2023-02-20T02:58:10;102131.0;;;8.28;99.65
48892;BME280;50130;52.150;5.236;2023-02-20T03:01:33;102133.0;;;8.48;99.44
48892;BME280;50130;52.150;5.236;2023-02-20T03:03:15;102125.0;;;8.5;99.37
48892;BME280;50130;52.150;5.236;2023-02-20T03:04:57;102126.0;;;8.42;99.67
48892;BME280;50130;52.150;5.236;2023-02-20T03:06:38;102125.0;;;8.4;100.0
48892;BME280;50130;52.150;5.236;2023-02-20T03:10:21;102125.0;;;8.49;99.91
48892;BME280;50130;52.150;5.236;2023-02-20T03:12:00;102127.0;;;8.45;100.0
48892;BME280;50130;52.150;5.236;2023-02-20T03:16:00;102119.0;;;8.48;100.0
48892;BME280;50130;52.150;5.236;2023-02-20T03:17:39;102121.0;;;8.48;100.0
48892;BME280;50130;52.150;5.236;2023-02-20T03:19:23;102113.0;;;8.47;100.0
48892;BME280;50130;52.150;5.236;2023-02-20T03:21:10;102108.0;;;8.5;100.0
48892;BME280;50130;52.150;5.236;2023-02-20T03:24:56;102115.0;;;8.5;100.0
48892;BME280;50130;52.150;5.236;2023-02-20T03:26:36;102111.0;;;8.52;100.0
48892;BME280;50130;52.150;5.236;2023-02-20T03:28:18;102114.0;;;8.64;100.0
48892;BME280;50130;52.150;5.236;2023-02-20T03:29:58;102115.0;;;8.58;100.0
48892;BME280;50130;52.150;5.236;2023-02-20T03:31:39;102116.0;;;8.61;100.0
48892;BME280;50130;52.150;5.236;2023-02-20T03:44:25;102093.0;;;8.78;99.2
48892;BME280;50130;52.150;5.236;2023-02-20T03:46:06;102088.0;;;8.81;99.25
48892;BME280;50130;52.150;5.236;2023-02-20T03:49:30;102087.0;;;8.73;99.49
48892;BME280;50130;52.150;5.236;2023-02-20T03:52:53;102085.0;;;8.81;99.38
48892;BME280;50130;52.150;5.236;2023-02-20T03:54:31;102080.0;;;8.75;99.58
48892;BME280;50130;52.150;5.236;2023-02-20T03:57:56;102085.0;;;8.86;99.19
48892;BME280;50130;52.150;5.236;2023-02-20T03:59:39;102080.0;;;8.81;99.39
48892;BME280;50130;52.150;5.236;2023-02-20T04:01:19;102077.0;;;8.86;99.12
48892;BME280;50130;52.150;5.236;2023-02-20T04:03:01;102074.0;;;8.76;99.36
48892;BME280;50130;52.150;5.236;2023-02-20T04:06:27;102069.0;;;8.78;99.72
48892;BME280;50130;52.150;5.236;2023-02-20T04:08:09;102074.0;;;8.8;99.83
48892;BME280;50130;52.150;5.236;2023-02-20T04:09:48;102071.0;;;8.84;99.97
48892;BME280;50130;52.150;5.236;2023-02-20T04:11:27;102072.0;;;9.0;99.19
48892;BME280;50130;52.150;5.236;2023-02-20T04:14:50;102070.0;;;8.9;99.18
48892;BME280;50130;52.150;5.236;2023-02-20T04:16:34;102072.0;;;8.92;99.36
48892;BME280;50130;52.150;5.236;2023-02-20T04:18:14;102072.0;;;8.99;99.17
48892;BME280;50130;52.150;5.236;2023-02-20T04:19:51;102074.0;;;8.97;98.98
48892;BME280;50130;52.150;5.236;2023-02-20T04:23:15;102076.0;;;8.93;99.31
48892;BME280;50130;52.150;5.236;2023-02-20T04:24:57;102076.0;;;8.94;99.53
48892;BME280;50130;52.150;5.236;2023-02-20T04:26:36;102075.0;;;8.99;99.1
48892;BME280;50130;52.150;5.236;2023-02-20T04:28:14;102080.0;;;8.97;99.39
48892;BME280;50130;52.150;5.236;2023-02-20T04:31:28;102074.0;;;8.99;99.24
48892;BME280;50130;52.150;5.236;2023-02-20T04:33:05;102073.0;;;8.99;99.07
48892;BME280;50130;52.150;5.236;2023-02-20T04:34:45;102066.0;;;9.0;99.01
48892;BME280;50130;52.150;5.236;2023-02-20T04:36:22;102075.0;;;9.09;98.84
48892;BME280;50130;52.150;5.236;2023-02-20T04:39:37;102076.0;;;8.98;99.0
48892;BME280;50130;52.150;5.236;2023-02-20T04:41:14;102065.0;;;9.0;98.94
48892;BME280;50130;52.150;5.236;2023-02-20T04:42:51;102072.0;;;9.06;98.89
48892;BME280;50130;52.150;5.236;2023-02-20T04:46:09;102073.0;;;9.11;98.69
48892;BME280;50130;52.150;5.236;2023-02-20T04:47:46;102063.0;;;9.02;98.7
48892;BME280;50130;52.150;5.236;2023-02-20T04:49:22;102066.0;;;9.01;98.98
48892;BME280;50130;52.150;5.236;2023-02-20T04:50:59;102078.0;;;9.02;99.26
48892;BME280;50130;52.150;5.236;2023-02-20T04:54:14;102074.0;;;9.03;99.19
48892;BME280;50130;52.150;5.236;2023-02-20T04:55:51;102070.0;;;9.13;98.92
48892;BME280;50130;52.150;5.236;2023-02-20T04:57:28;102072.0;;;9.1;98.92
48892;BME280;50130;52.150;5.236;2023-02-20T05:00:41;102068.0;;;8.98;99.39
48892;BME280;50130;52.150;5.236;2023-02-20T05:02:20;102071.0;;;9.01;99.29
48892;BME280;50130;52.150;5.236;2023-02-20T05:03:57;102068.0;;;8.96;99.63
48892;BME280;50130;52.150;5.236;2023-02-20T05:05:34;102065.0;;;9.11;99.32
48892;BME280;50130;52.150;5.236;2023-02-20T05:08:47;102067.0;;;9.08;99.0
48892;BME280;50130;52.150;5.236;2023-02-20T05:10:26;102067.0;;;9.11;98.89
48892;BME280;50130;52.150;5.236;2023-02-20T05:12:03;102069.0;;;9.15;98.63
48892;BME280;50130;52.150;5.236;2023-02-20T05:15:17;102069.0;;;9.01;99.32
48892;BME280;50130;52.150;5.236;2023-02-20T05:16:55;102064.0;;;9.03;99.11
48892;BME280;50130;52.150;5.236;2023-02-20T05:18:32;102064.0;;;9.13;99.11
48892;BME280;50130;52.150;5.236;2023-02-20T05:22:23;102067.0;;;9.17;98.82
48892;BME280;50130;52.150;5.236;2023-02-20T05:23:59;102068.0;;;9.21;98.25
48892;BME280;50130;52.150;5.236;2023-02-20T05:25:36;102070.0;;;9.22;98.4
48892;BME280;50130;52.150;5.236;2023-02-20T05:27:16;102067.0;;;9.17;98.75
48892;BME280;50130;52.150;5.236;2023-02-20T05:28:53;102071.0;;;9.24;98.38
48892;BME280;50130;52.150;5.236;2023-02-20T05:32:07;102073.0;;;9.23;98.03
48892;BME280;50130;52.150;5.236;2023-02-20T05:33:43;102080.0;;;9.23;98.61
48892;BME280;50130;52.150;5.236;2023-02-20T05:35:20;102069.0;;;9.32;97.96
48892;BME280;50130;52.150;5.236;2023-02-20T05:36:57;102086.0;;;9.31;97.89
48892;BME280;50130;52.150;5.236;2023-02-20T05:40:11;102075.0;;;9.33;97.79
48892;BME280;50130;52.150;5.236;2023-02-20T05:41:48;102084.0;;;9.38;97.67
48892;BME280;50130;52.150;5.236;2023-02-20T05:43:24;102071.0;;;9.21;98.16
48892;BME280;50130;52.150;5.236;2023-02-20T05:46:40;102076.0;;;9.23;98.4
48892;BME280;50130;52.150;5.236;2023-02-20T05:48:17;102074.0;;;9.35;97.93
48892;BME280;50130;52.150;5.236;2023-02-20T05:49:54;102071.0;;;9.34;97.52
48892;BME280;50130;52.150;5.236;2023-02-20T05:53:08;102067.0;;;9.42;97.53
48892;BME280;50130;52.150;5.236;2023-02-20T05:54:45;102069.0;;;9.33;97.63
48892;BME280;50130;52.150;5.236;2023-02-20T05:56:22;102067.0;;;9.32;97.71
48892;BME280;50130;52.150;5.236;2023-02-20T05:57:58;102071.0;;;9.28;97.65
48892;BME280;50130;52.150;5.236;2023-02-20T06:01:16;102060.0;;;9.34;97.41
48892;BME280;50130;52.150;5.236;2023-02-20T06:02:53;102058.0;;;9.47;96.66
48892;BME280;50130;52.150;5.236;2023-02-20T06:04:29;102052.0;;;9.28;97.48
48892;BME280;50130;52.150;5.236;2023-02-20T06:07:42;102056.0;;;9.32;97.45
48892;BME280;50130;52.150;5.236;2023-02-20T06:09:20;102064.0;;;9.42;96.79
48892;BME280;50130;52.150;5.236;2023-02-20T06:10:56;102066.0;;;9.51;96.44
48892;BME280;50130;52.150;5.236;2023-02-20T06:12:33;102066.0;;;9.26;97.18
48892;BME280;50130;52.150;5.236;2023-02-20T06:15:46;102067.0;;;9.35;96.96
48892;BME280;50130;52.150;5.236;2023-02-20T06:17:24;102068.0;;;9.34;97.08
48892;BME280;50130;52.150;5.236;2023-02-20T06:19:00;102064.0;;;9.33;96.92
48892;BME280;50130;52.150;5.236;2023-02-20T06:22:15;102063.0;;;9.33;96.81
48892;BME280;50130;52.150;5.236;2023-02-20T06:23:52;102066.0;;;9.34;96.77
48892;BME280;50130;52.150;5.236;2023-02-20T06:25:29;102067.0;;;9.39;97.02
48892;BME280;50130;52.150;5.236;2023-02-20T06:28:43;102069.0;;;9.38;96.54
48892;BME280;50130;52.150;5.236;2023-02-20T06:30:20;102065.0;;;9.28;96.5
48892;BME280;50130;52.150;5.236;2023-02-20T06:31:57;102069.0;;;9.39;96.26
48892;BME280;50130;52.150;5.236;2023-02-20T06:33:34;102072.0;;;9.4;96.11
48892;BME280;50130;52.150;5.236;2023-02-20T06:36:49;102062.0;;;9.4;96.31
48892;BME280;50130;52.150;5.236;2023-02-20T06:38:26;102065.0;;;9.47;96.16
48892;BME280;50130;52.150;5.236;2023-02-20T06:40:04;102067.0;;;9.49;96.09
48892;BME280;50130;52.150;5.236;2023-02-20T06:43:19;102065.0;;;9.56;95.7
48892;BME280;50130;52.150;5.236;2023-02-20T06:44:56;102063.0;;;9.52;95.67
48892;BME280;50130;52.150;5.236;2023-02-20T06:46:32;102069.0;;;9.48;95.87
48892;BME280;50130;52.150;5.236;2023-02-20T06:48:10;102059.0;;;9.53;95.45
48892;BME280;50130;52.150;5.236;2023-02-20T06:51:27;102060.0;;;9.46;95.61
48892;BME280;50130;52.150;5.236;2023-02-20T06:53:03;102072.0;;;9.52;95.6
48892;BME280;50130;52.150;5.236;2023-02-20T06:54:41;102068.0;;;9.52;95.49
48892;BME280;50130;52.150;5.236;2023-02-20T06:57:59;102071.0;;;9.59;95.76
48892;BME280;50130;52.150;5.236;2023-02-20T06:59:40;102066.0;;;9.6;95.27
48892;BME280;50130;52.150;5.236;2023-02-20T07:01:21;102073.0;;;9.63;95.2
48892;BME280;50130;52.150;5.236;2023-02-20T07:02:59;102067.0;;;9.53;95.62
48892;BME280;50130;52.150;5.236;2023-02-20T07:06:14;102056.0;;;9.48;96.11
48892;BME280;50130;52.150;5.236;2023-02-20T07:07:50;102060.0;;;9.48;96.18
48892;BME280;50130;52.150;5.236;2023-02-20T07:09:28;102066.0;;;9.51;95.92
48892;BME280;50130;52.150;5.236;2023-02-20T07:11:05;102070.0;;;9.42;95.99
48892;BME280;50130;52.150;5.236;2023-02-20T07:14:18;102069.0;;;9.43;96.4
48892;BME280;50130;52.150;5.236;2023-02-20T07:15:55;102067.0;;;9.38;96.55
48892;BME280;50130;52.150;5.236;2023-02-20T07:17:33;102074.0;;;9.4;96.55
48892;BME280;50130;52.150;5.236;2023-02-20T07:20:47;102075.0;;;9.35;96.78
48892;BME280;50130;52.150;5.236;2023-02-20T07:22:26;102077.0;;;9.39;96.87
48892;BME280;50130;52.150;5.236;2023-02-20T07:24:05;102076.0;;;9.39;96.49
48892;BME280;50130;52.150;5.236;2023-02-20T07:25:42;102073.0;;;9.4;96.74
48892;BME280;50130;52.150;5.236;2023-02-20T07:28:58;102077.0;;;9.48;96.6
48892;BME280;50130;52.150;5.236;2023-02-20T07:30:34;102078.0;;;9.41;96.88
48892;BME280;50130;52.150;5.236;2023-02-20T07:32:11;102071.0;;;9.4;96.93
48892;BME280;50130;52.150;5.236;2023-02-20T07:35:26;102074.0;;;9.44;96.91
48892;BME280;50130;52.150;5.236;2023-02-20T07:37:02;102074.0;;;9.44;96.7
48892;BME280;50130;52.150;5.236;2023-02-20T07:38:39;102083.0;;;9.44;96.83
48892;BME280;50130;52.150;5.236;2023-02-20T07:41:54;102082.0;;;9.52;96.55
48892;BME280;50130;52.150;5.236;2023-02-20T07:43:32;102085.0;;;9.53;96.49
48892;BME280;50130;52.150;5.236;2023-02-20T07:45:09;102080.0;;;9.53;96.65
48892;BME280;50130;52.150;5.236;2023-02-20T07:46:46;102084.0;;;9.53;96.43
48892;BME280;50130;52.150;5.236;2023-02-20T07:49:59;102081.0;;;9.56;96.47
48892;BME280;50130;52.150;5.236;2023-02-20T07:51:35;102085.0;;;9.68;95.7
48892;BME280;50130;52.150;5.236;2023-02-20T07:53:13;102080.0;;;9.71;95.93
48892;BME280;50130;52.150;5.236;2023-02-20T07:56:27;102078.0;;;9.64;95.89
48892;BME280;50130;52.150;5.236;2023-02-20T07:58:04;102075.0;;;9.66;95.94
48892;BME280;50130;52.150;5.236;2023-02-20T07:59:41;102070.0;;;9.65;96.28
48892;BME280;50130;52.150;5.236;2023-02-20T08:01:18;102076.0;;;9.65;96.14
48892;BME280;50130;52.150;5.236;2023-02-20T08:04:31;102074.0;;;9.73;95.89
48892;BME280;50130;52.150;5.236;2023-02-20T08:06:07;102073.0;;;9.6;96.5
48892;BME280;50130;52.150;5.236;2023-02-20T08:07:44;102070.0;;;9.76;96.25
48892;BME280;50130;52.150;5.236;2023-02-20T08:10:56;102066.0;;;9.64;96.75
48892;BME280;50130;52.150;5.236;2023-02-20T08:12:34;102070.0;;;9.72;96.24
48892;BME280;50130;52.150;5.236;2023-02-20T08:14:12;102070.0;;;9.8;95.85
48892;BME280;50130;52.150;5.236;2023-02-20T08:17:25;102072.0;;;9.82;95.89
48892;BME280;50130;52.150;5.236;2023-02-20T08:19:01;102080.0;;;9.83;95.73
48892;BME280;50130;52.150;5.236;2023-02-20T08:20:38;102077.0;;;9.73;96.32
48892;BME280;50130;52.150;5.236;2023-02-20T08:22:14;102071.0;;;9.78;96.1
48892;BME280;50130;52.150;5.236;2023-02-20T08:25:27;102078.0;;;9.74;96.47
48892;BME280;50130;52.150;5.236;2023-02-20T08:27:03;102073.0;;;9.81;96.28
48892;BME280;50130;52.150;5.236;2023-02-20T08:28:40;102067.0;;;9.83;96.41
48892;BME280;50130;52.150;5.236;2023-02-20T08:31:58;102067.0;;;9.84;96.14
48892;BME280;50130;52.150;5.236;2023-02-20T08:33:34;102063.0;;;9.96;96.24
48892;BME280;50130;52.150;5.236;2023-02-20T08:35:10;102062.0;;;9.88;95.87
48892;BME280;50130;52.150;5.236;2023-02-20T08:36:47;102060.0;;;9.82;96.95
48892;BME280;50130;52.150;5.236;2023-02-20T08:40:07;102056.0;;;9.75;96.88
48892;BME280;50130;52.150;5.236;2023-02-20T08:41:46;102049.0;;;9.81;96.98
48892;BME280;50130;52.150;5.236;2023-02-20T08:43:22;102047.0;;;9.81;97.04
48892;BME280;50130;52.150;5.236;2023-02-20T08:46:35;102046.0;;;9.89;97.01
48892;BME280;50130;52.150;5.236;2023-02-20T08:48:12;102050.0;;;9.9;97.01
48892;BME280;50130;52.150;5.236;2023-02-20T08:49:48;102046.0;;;9.86;97.02
48892;BME280;50130;52.150;5.236;2023-02-20T08:53:01;102042.0;;;9.96;96.92
48892;BME280;50130;52.150;5.236;2023-02-20T08:54:37;102062.0;;;9.93;96.44
48892;BME280;50130;52.150;5.236;2023-02-20T08:56:17;102060.0;;;9.99;96.64
48892;BME280;50130;52.150;5.236;2023-02-20T08:57:55;102062.0;;;9.85;96.84
48892;BME280;50130;52.150;5.236;2023-02-20T09:01:07;102060.0;;;9.98;96.86
48892;BME280;50130;52.150;5.236;2023-02-20T09:02:45;102055.0;;;9.9;96.9
48892;BME280;50130;52.150;5.236;2023-02-20T09:04:23;102046.0;;;9.92;96.71
48892;BME280;50130;52.150;5.236;2023-02-20T09:07:36;102052.0;;;9.89;96.7
48892;BME280;50130;52.150;5.236;2023-02-20T09:09:12;102043.0;;;9.91;96.84
48892;BME280;50130;52.150;5.236;2023-02-20T09:10:48;102049.0;;;9.98;96.68
48892;BME280;50130;52.150;5.236;2023-02-20T09:12:24;102053.0;;;10.03;96.16
48892;BME280;50130;52.150;5.236;2023-02-20T09:15:39;102041.0;;;10.07;96.01
48892;BME280;50130;52.150;5.236;2023-02-20T09:17:15;102057.0;;;10.1;95.57
48892;BME280;50130;52.150;5.236;2023-02-20T09:18:54;102038.0;;;10.08;95.62
48892;BME280;50130;52.150;5.236;2023-02-20T09:22:07;102057.0;;;9.98;96.08
48892;BME280;50130;52.150;5.236;2023-02-20T09:23:44;102055.0;;;10.01;96.03
48892;BME280;50130;52.150;5.236;2023-02-20T09:25:21;102044.0;;;9.97;96.27
48892;BME280;50130;52.150;5.236;2023-02-20T09:28:33;102044.0;;;9.98;96.06
48892;BME280;50130;52.150;5.236;2023-02-20T09:30:14;102053.0;;;10.05;96.0
48892;BME280;50130;52.150;5.236;2023-02-20T09:31:52;102043.0;;;10.05;95.85
48892;BME280;50130;52.150;5.236;2023-02-20T09:33:29;102055.0;;;10.03;96.07
48892;BME280;50130;52.150;5.236;2023-02-20T09:36:41;102056.0;;;9.98;96.35
48892;BME280;50130;52.150;5.236;2023-02-20T09:38:17;102063.0;;;10.0;96.54
48892;BME280;50130;52.150;5.236;2023-02-20T09:39:53;102056.0;;;10.05;96.11
48892;BME280;50130;52.150;5.236;2023-02-20T09:43:36;102052.0;;;10.11;95.8
48892;BME280;50130;52.150;5.236;2023-02-20T09:45:19;102063.0;;;10.05;95.29
48892;BME280;50130;52.150;5.236;2023-02-20T09:47:02;102058.0;;;10.06;96.0
48892;BME280;50130;52.150;5.236;2023-02-20T09:49:04;102058.0;;;10.1;95.63
48892;BME280;50130;52.150;5.236;2023-02-20T09:50:47;102062.0;;;10.11;95.4
48892;BME280;50130;52.150;5.236;2023-02-20T09:52:27;102067.0;;;10.23;95.34
48892;BME280;50130;52.150;5.236;2023-02-20T09:55:46;102071.0;;;10.25;95.24
48892;BME280;50130;52.150;5.236;2023-02-20T09:57:26;102064.0;;;10.26;94.43
48892;BME280;50130;52.150;5.236;2023-02-20T09:59:09;102062.0;;;10.24;94.74
48892;BME280;50130;52.150;5.236;2023-02-20T10:00:48;102055.0;;;10.19;94.54
48892;BME280;50130;52.150;5.236;2023-02-20T10:04:09;102051.0;;;10.27;94.97
48892;BME280;50130;52.150;5.236;2023-02-20T10:05:49;102051.0;;;10.28;95.29
48892;BME280;50130;52.150;5.236;2023-02-20T10:07:27;102038.0;;;10.27;94.87
48892;BME280;50130;52.150;5.236;2023-02-20T10:09:09;102045.0;;;10.28;95.0
48892;BME280;50130;52.150;5.236;2023-02-20T10:12:31;102052.0;;;10.36;94.16
48892;BME280;50130;52.150;5.236;2023-02-20T10:14:29;102053.0;;;10.38;94.25
48892;BME280;50130;52.150;5.236;2023-02-20T10:16:18;102060.0;;;10.43;94.31
48892;BME280;50130;52.150;5.236;2023-02-20T10:18:08;102063.0;;;10.38;94.13
48892;BME280;50130;52.150;5.236;2023-02-20T10:19:55;102043.0;;;10.37;93.85
48892;BME280;50130;52.150;5.236;2023-02-20T10:21:46;102051.0;;;10.39;93.86
48892;BME280;50130;52.150;5.236;2023-02-20T10:25:22;102056.0;;;10.5;93.61
48892;BME280;50130;52.150;5.236;2023-02-20T10:27:14;102060.0;;;10.53;93.73
48892;BME280;50130;52.150;5.236;2023-02-20T10:29:02;102062.0;;;10.51;93.65
48892;BME280;50130;52.150;5.236;2023-02-20T10:30:55;102059.0;;;10.52;93.52
48892;BME280;50130;52.150;5.236;2023-02-20T10:32:37;102066.0;;;10.55;93.13
48892;BME280;50130;52.150;5.236;2023-02-20T10:34:22;102073.0;;;10.61;92.86
48892;BME280;50130;52.150;5.236;2023-02-20T10:36:09;102055.0;;;10.54;93.03
48892;BME280;50130;52.150;5.236;2023-02-20T10:39:30;102035.0;;;10.43;93.43
48892;BME280;50130;52.150;5.236;2023-02-20T10:41:16;102030.0;;;10.43;93.56
48892;BME280;50130;52.150;5.236;2023-02-20T10:42:59;102032.0;;;10.48;93.87
48892;BME280;50130;52.150;5.236;2023-02-20T10:44:45;102045.0;;;10.49;93.65
48892;BME280;50130;52.150;5.236;2023-02-20T10:48:10;102052.0;;;10.54;92.77
48892;BME280;50130;52.150;5.236;2023-02-20T10:49:51;102036.0;;;10.56;93.14
48892;BME280;50130;52.150;5.236;2023-02-20T10:51:34;102032.0;;;10.53;93.19
48892;BME280;50130;52.150;5.236;2023-02-20T10:53:21;102041.0;;;10.48;93.44
48892;BME280;50130;52.150;5.236;2023-02-20T10:55:05;102062.0;;;10.36;93.56
48892;BME280;50130;52.150;5.236;2023-02-20T10:58:36;102065.0;;;10.56;93.37
48892;BME280;50130;52.150;5.236;2023-02-20T11:00:19;102071.0;;;10.66;92.68
48892;BME280;50130;52.150;5.236;2023-02-20T11:01:59;102052.0;;;10.57;93.13
48892;BME280;50130;52.150;5.236;2023-02-20T11:03:44;102048.0;;;10.61;93.3
48892;BME280;50130;52.150;5.236;2023-02-20T11:05:25;102051.0;;;10.53;93.56
48892;BME280;50130;52.150;5.236;2023-02-20T11:08:47;102056.0;;;10.57;93.02
48892;BME280;50130;52.150;5.236;2023-02-20T11:10:23;102050.0;;;10.66;93.4
48892;BME280;50130;52.150;5.236;2023-02-20T11:12:00;102057.0;;;10.6;92.62
48892;BME280;50130;52.150;5.236;2023-02-20T11:15:16;102044.0;;;10.65;93.15
48892;BME280;50130;52.150;5.236;2023-02-20T11:16:57;102055.0;;;10.64;92.66
48892;BME280;50130;52.150;5.236;2023-02-20T11:18:37;102059.0;;;10.7;92.38
48892;BME280;50130;52.150;5.236;2023-02-20T11:20:40;102074.0;;;10.6;92.49
48892;BME280;50130;52.150;5.236;2023-02-20T11:22:43;102062.0;;;10.59;92.79
48892;BME280;50130;52.150;5.236;2023-02-20T11:28:18;102027.0;;;10.64;92.42
48892;BME280;50130;52.150;5.236;2023-02-20T11:30:01;102032.0;;;10.54;92.85
48892;BME280;50130;52.150;5.236;2023-02-20T11:31:39;102024.0;;;10.56;93.23
48892;BME280;50130;52.150;5.236;2023-02-20T11:33:18;102006.0;;;10.69;92.28